createdAt,value
2017-11-30T00:00:00.099Z,0
2017-11-30T00:00:40.634Z,0
2017-11-30T00:01:21.157Z,0
2017-11-30T00:02:01.632Z,0
2017-11-30T00:02:42.140Z,0
2017-11-30T00:03:22.641Z,0
2017-11-30T00:04:03.162Z,0
2017-11-30T00:04:43.660Z,0
2017-11-30T00:05:24.168Z,0
2017-11-30T00:06:04.665Z,0
2017-11-30T00:06:45.181Z,0
2017-11-30T00:07:25.710Z,0
2017-11-30T00:08:06.247Z,0
2017-11-30T00:08:46.740Z,0
2017-11-30T00:09:27.225Z,0
2017-11-30T00:10:07.750Z,0
2017-11-30T00:10:48.278Z,0
2017-11-30T00:11:28.821Z,0
2017-11-30T00:12:09.309Z,0
2017-11-30T00:12:49.829Z,0
2017-11-30T00:13:30.356Z,0
2017-11-30T00:14:10.863Z,0
2017-11-30T00:14:51.377Z,0
2017-11-30T00:15:31.883Z,0
2017-11-30T00:16:12.394Z,0
2017-11-30T00:16:52.918Z,0
2017-11-30T00:17:33.456Z,0
2017-11-30T00:18:13.980Z,0
2017-11-30T00:18:54.478Z,0
2017-11-30T00:19:34.986Z,0
2017-11-30T00:20:15.465Z,0
2017-11-30T00:20:55.967Z,0
2017-11-30T00:21:36.463Z,0
2017-11-30T00:22:16.983Z,0
2017-11-30T00:22:57.484Z,0
2017-11-30T00:23:38.005Z,0
2017-11-30T00:24:18.533Z,0
2017-11-30T00:24:59.046Z,0
2017-11-30T00:25:39.550Z,0
2017-11-30T00:26:20.067Z,0
2017-11-30T00:27:00.558Z,0
2017-11-30T00:27:41.063Z,0
2017-11-30T00:28:21.575Z,0
2017-11-30T00:29:02.095Z,0
2017-11-30T00:29:42.617Z,0
2017-11-30T00:30:23.127Z,0
2017-11-30T00:31:03.628Z,0
2017-11-30T00:31:44.122Z,0
2017-11-30T00:32:24.656Z,0
2017-11-30T00:33:05.197Z,0
2017-11-30T00:33:45.700Z,0
2017-11-30T00:34:26.350Z,0
2017-11-30T00:35:06.852Z,0
2017-11-30T00:35:47.360Z,0
2017-11-30T00:36:27.877Z,0
2017-11-30T00:37:08.392Z,0
2017-11-30T00:37:48.930Z,0
2017-11-30T00:38:29.412Z,0
2017-11-30T00:39:09.917Z,0
2017-11-30T00:39:50.412Z,0
2017-11-30T00:40:30.909Z,0
2017-11-30T00:41:11.397Z,0
2017-11-30T00:41:51.913Z,0
2017-11-30T00:42:32.428Z,0
2017-11-30T00:43:12.958Z,0
2017-11-30T00:43:53.426Z,0
2017-11-30T00:44:33.932Z,0
2017-11-30T00:45:14.426Z,0
2017-11-30T00:45:54.955Z,0
2017-11-30T00:46:35.459Z,0
2017-11-30T00:47:15.980Z,0
2017-11-30T00:47:56.500Z,0
2017-11-30T00:48:37.014Z,0
2017-11-30T00:49:17.519Z,0
2017-11-30T00:49:58.028Z,0
2017-11-30T00:50:38.563Z,0
2017-11-30T00:51:19.071Z,0
2017-11-30T00:51:59.575Z,0
2017-11-30T00:52:40.079Z,0
2017-11-30T00:53:20.617Z,0
2017-11-30T00:54:01.112Z,0
2017-11-30T00:54:41.634Z,0
2017-11-30T00:55:22.177Z,0
2017-11-30T00:56:02.706Z,0
2017-11-30T00:56:43.218Z,0
2017-11-30T00:57:23.729Z,0
2017-11-30T00:58:04.239Z,0
2017-11-30T00:58:44.725Z,0
2017-11-30T00:59:25.261Z,0
2017-11-30T01:00:05.759Z,0
2017-11-30T01:00:46.269Z,0
2017-11-30T01:01:26.808Z,0
2017-11-30T01:02:07.321Z,0
2017-11-30T01:02:47.833Z,0
2017-11-30T01:03:28.352Z,0
2017-11-30T01:04:08.852Z,0
2017-11-30T01:04:49.362Z,0
2017-11-30T01:05:29.890Z,0
2017-11-30T01:06:10.403Z,0
2017-11-30T01:06:50.923Z,0
2017-11-30T01:07:31.464Z,0
2017-11-30T01:08:13.374Z,0
2017-11-30T01:10:27.491Z,0
2017-11-30T01:11:07.993Z,0
2017-11-30T01:11:48.522Z,0
2017-11-30T01:12:29.044Z,0
2017-11-30T01:13:09.558Z,0
2017-11-30T01:13:50.075Z,0
2017-11-30T01:14:30.630Z,0
2017-11-30T01:15:11.132Z,0
2017-11-30T01:15:51.646Z,0
2017-11-30T01:16:32.150Z,0
2017-11-30T01:17:12.651Z,0
2017-11-30T01:17:53.157Z,0
2017-11-30T01:18:33.669Z,0
2017-11-30T01:19:14.184Z,0
2017-11-30T01:19:54.688Z,0
2017-11-30T01:20:35.191Z,0
2017-11-30T01:21:15.704Z,0
2017-11-30T01:21:56.203Z,0
2017-11-30T01:22:36.706Z,0
2017-11-30T01:23:17.197Z,0
2017-11-30T01:23:57.701Z,0
2017-11-30T01:24:38.200Z,0
2017-11-30T01:25:18.707Z,0
2017-11-30T01:25:59.235Z,0
2017-11-30T01:26:41.289Z,0
2017-11-30T01:27:21.791Z,0
2017-11-30T01:28:02.328Z,0
2017-11-30T01:28:42.821Z,0
2017-11-30T01:29:23.330Z,0
2017-11-30T01:30:03.871Z,0
2017-11-30T01:30:44.382Z,0
2017-11-30T01:31:24.894Z,0
2017-11-30T01:32:05.440Z,0
2017-11-30T01:32:45.932Z,0
2017-11-30T01:33:26.460Z,0
2017-11-30T01:34:07.010Z,0
2017-11-30T01:34:47.520Z,0
2017-11-30T01:35:28.039Z,0
2017-11-30T01:36:08.559Z,0
2017-11-30T01:36:49.079Z,0
2017-11-30T01:37:29.587Z,0
2017-11-30T01:38:10.143Z,0
2017-11-30T01:38:50.664Z,0
2017-11-30T01:39:31.180Z,0
2017-11-30T01:40:11.663Z,0
2017-11-30T01:40:52.197Z,0
2017-11-30T01:41:32.709Z,0
2017-11-30T01:42:13.220Z,0
2017-11-30T01:42:53.735Z,0
2017-11-30T01:43:34.270Z,0
2017-11-30T01:44:14.790Z,0
2017-11-30T01:44:55.295Z,0
2017-11-30T01:45:35.821Z,0
2017-11-30T01:46:16.329Z,0
2017-11-30T01:46:56.818Z,0
2017-11-30T01:47:37.320Z,0
2017-11-30T01:48:17.830Z,0
2017-11-30T01:48:58.377Z,0
2017-11-30T01:49:38.879Z,0
2017-11-30T01:50:19.387Z,0
2017-11-30T01:50:59.886Z,0
2017-11-30T01:51:40.404Z,0
2017-11-30T01:52:20.935Z,0
2017-11-30T01:53:01.430Z,0
2017-11-30T01:53:41.941Z,0
2017-11-30T01:54:22.456Z,0
2017-11-30T01:55:02.965Z,0
2017-11-30T01:55:43.485Z,0
2017-11-30T01:56:23.987Z,0
2017-11-30T01:57:04.502Z,0
2017-11-30T01:57:45.022Z,0
2017-11-30T01:58:25.538Z,0
2017-11-30T01:59:06.023Z,0
2017-11-30T01:59:46.551Z,0
2017-11-30T02:00:27.068Z,0
2017-11-30T02:01:07.575Z,0
2017-11-30T02:01:48.120Z,0
2017-11-30T02:02:28.608Z,0
2017-11-30T02:03:09.117Z,0
2017-11-30T02:03:49.653Z,0
2017-11-30T02:04:30.151Z,0
2017-11-30T02:05:10.674Z,0
2017-11-30T02:05:51.207Z,0
2017-11-30T02:06:31.693Z,0
2017-11-30T02:07:12.205Z,0
2017-11-30T02:07:52.714Z,0
2017-11-30T02:08:33.219Z,0
2017-11-30T02:09:13.747Z,0
2017-11-30T02:09:54.232Z,0
2017-11-30T02:10:34.780Z,0
2017-11-30T02:11:15.310Z,0
2017-11-30T02:11:55.800Z,0
2017-11-30T02:12:36.326Z,0
2017-11-30T02:13:16.845Z,0
2017-11-30T02:13:57.358Z,0
2017-11-30T02:14:37.870Z,0
2017-11-30T02:15:18.403Z,0
2017-11-30T02:15:58.895Z,0
2017-11-30T02:16:39.401Z,0
2017-11-30T02:17:19.917Z,0
2017-11-30T02:18:00.432Z,0
2017-11-30T02:18:40.942Z,0
2017-11-30T02:19:21.465Z,0
2017-11-30T02:20:01.964Z,0
2017-11-30T02:20:42.471Z,0
2017-11-30T02:21:22.986Z,0
2017-11-30T02:22:03.486Z,0
2017-11-30T02:22:43.998Z,0
2017-11-30T02:23:24.518Z,0
2017-11-30T02:24:05.045Z,0
2017-11-30T02:24:45.543Z,0
2017-11-30T02:25:26.049Z,0
2017-11-30T02:26:06.566Z,0
2017-11-30T02:26:47.088Z,0
2017-11-30T02:27:27.600Z,0
2017-11-30T02:28:08.128Z,0
2017-11-30T02:28:48.653Z,0
2017-11-30T02:29:29.178Z,0
2017-11-30T02:30:09.694Z,0
2017-11-30T02:30:50.213Z,0
2017-11-30T02:31:30.735Z,0
2017-11-30T02:32:11.266Z,0
2017-11-30T02:32:51.762Z,0
2017-11-30T02:33:32.244Z,0
2017-11-30T02:34:12.773Z,0
2017-11-30T02:34:53.302Z,0
2017-11-30T02:35:33.807Z,0
2017-11-30T02:36:14.336Z,0
2017-11-30T02:36:54.849Z,0
2017-11-30T02:37:35.373Z,0
2017-11-30T02:38:15.888Z,0
2017-11-30T02:38:56.400Z,0
2017-11-30T02:39:36.905Z,0
2017-11-30T02:40:17.403Z,0
2017-11-30T02:40:57.949Z,0
2017-11-30T02:41:38.491Z,0
2017-11-30T02:42:19.080Z,0
2017-11-30T02:42:59.609Z,0
2017-11-30T02:43:40.105Z,0
2017-11-30T02:44:20.623Z,0
2017-11-30T02:45:01.150Z,0
2017-11-30T02:45:41.698Z,0
2017-11-30T02:46:22.183Z,0
2017-11-30T02:47:02.695Z,0
2017-11-30T02:47:43.231Z,0
2017-11-30T02:48:23.752Z,0
2017-11-30T02:49:04.242Z,0
2017-11-30T02:49:44.753Z,0
2017-11-30T02:50:25.263Z,0
2017-11-30T02:51:05.777Z,0
2017-11-30T02:51:46.272Z,0
2017-11-30T02:52:26.781Z,0
2017-11-30T02:53:07.282Z,0
2017-11-30T02:53:47.791Z,0
2017-11-30T02:54:28.330Z,0
2017-11-30T02:55:08.815Z,0
2017-11-30T02:55:49.324Z,0
2017-11-30T02:56:29.822Z,0
2017-11-30T02:57:10.334Z,0
2017-11-30T02:57:50.848Z,0
2017-11-30T02:58:31.357Z,0
2017-11-30T02:59:11.886Z,0
2017-11-30T02:59:52.389Z,0
2017-11-30T03:00:32.892Z,0
2017-11-30T03:01:13.401Z,0
2017-11-30T03:01:53.928Z,0
2017-11-30T03:02:34.431Z,0
2017-11-30T03:03:14.920Z,0
2017-11-30T03:03:55.442Z,0
2017-11-30T03:04:36.006Z,0
2017-11-30T03:05:16.526Z,0
2017-11-30T03:05:56.999Z,0
2017-11-30T03:06:37.530Z,0
2017-11-30T03:07:18.030Z,0
2017-11-30T03:07:58.551Z,0
2017-11-30T03:08:39.052Z,0
2017-11-30T03:09:19.555Z,0
2017-11-30T03:10:00.039Z,0
2017-11-30T03:10:40.546Z,0
2017-11-30T03:11:21.050Z,0
2017-11-30T03:12:01.561Z,0
2017-11-30T03:12:42.089Z,0
2017-11-30T03:13:22.611Z,0
2017-11-30T03:14:03.136Z,0
2017-11-30T03:14:43.626Z,0
2017-11-30T03:15:24.144Z,0
2017-11-30T03:16:04.669Z,0
2017-11-30T03:16:45.155Z,0
2017-11-30T03:17:25.677Z,0
2017-11-30T03:18:06.174Z,0
2017-11-30T03:18:46.682Z,0
2017-11-30T03:19:27.192Z,0
2017-11-30T03:20:07.725Z,0
2017-11-30T03:20:48.220Z,0
2017-11-30T03:21:28.729Z,0
2017-11-30T03:22:09.248Z,0
2017-11-30T03:22:49.762Z,0
2017-11-30T03:23:30.276Z,0
2017-11-30T03:24:10.789Z,0
2017-11-30T03:24:51.299Z,0
2017-11-30T03:25:31.829Z,0
2017-11-30T03:26:12.315Z,0
2017-11-30T03:26:52.824Z,0
2017-11-30T03:27:33.346Z,0
2017-11-30T03:28:13.861Z,0
2017-11-30T03:28:54.357Z,0
2017-11-30T03:29:34.848Z,0
2017-11-30T03:30:15.375Z,0
2017-11-30T03:30:55.885Z,0
2017-11-30T03:31:36.397Z,0
2017-11-30T03:32:16.895Z,0
2017-11-30T03:32:57.406Z,0
2017-11-30T03:33:37.926Z,0
2017-11-30T03:34:18.470Z,0
2017-11-30T03:35:05.907Z,0
2017-11-30T03:35:46.405Z,0
2017-11-30T03:36:26.934Z,0
2017-11-30T03:37:07.442Z,0
2017-11-30T03:37:47.961Z,0
2017-11-30T03:38:28.478Z,0
2017-11-30T03:39:08.989Z,0
2017-11-30T03:39:49.503Z,0
2017-11-30T03:40:30.026Z,0
2017-11-30T03:41:10.532Z,0
2017-11-30T03:41:51.043Z,0
2017-11-30T03:42:31.568Z,0
2017-11-30T03:43:12.098Z,0
2017-11-30T03:43:52.603Z,0
2017-11-30T03:44:33.111Z,0
2017-11-30T03:45:13.639Z,0
2017-11-30T03:45:54.123Z,0
2017-11-30T03:46:34.637Z,0
2017-11-30T03:47:15.154Z,0
2017-11-30T03:47:55.658Z,0
2017-11-30T03:48:36.162Z,0
2017-11-30T03:49:16.674Z,0
2017-11-30T03:49:57.205Z,0
2017-11-30T03:50:37.721Z,0
2017-11-30T03:51:18.216Z,0
2017-11-30T03:51:58.740Z,0
2017-11-30T03:52:39.242Z,0
2017-11-30T03:53:19.746Z,0
2017-11-30T03:54:00.247Z,0
2017-11-30T03:54:40.854Z,0
2017-11-30T03:55:21.366Z,0
2017-11-30T03:56:01.889Z,0
2017-11-30T03:56:42.409Z,0
2017-11-30T03:57:22.922Z,0
2017-11-30T03:58:03.430Z,0
2017-11-30T03:58:43.946Z,0
2017-11-30T03:59:24.442Z,0
2017-11-30T04:00:04.954Z,0
2017-11-30T04:00:45.471Z,0
2017-11-30T04:01:25.983Z,0
2017-11-30T04:02:06.502Z,0
2017-11-30T04:02:47.012Z,0
2017-11-30T04:03:27.525Z,0
2017-11-30T04:04:08.057Z,0
2017-11-30T04:04:48.574Z,0
2017-11-30T04:05:29.097Z,0
2017-11-30T04:06:09.611Z,0
2017-11-30T04:06:50.137Z,0
2017-11-30T04:07:30.666Z,0
2017-11-30T04:08:11.183Z,0
2017-11-30T04:08:51.717Z,0
2017-11-30T04:09:32.238Z,0
2017-11-30T04:10:12.747Z,0
2017-11-30T04:10:53.269Z,0
2017-11-30T04:11:33.789Z,0
2017-11-30T04:12:14.308Z,0
2017-11-30T04:12:54.831Z,0
2017-11-30T04:13:35.365Z,0
2017-11-30T04:14:15.841Z,0
2017-11-30T04:14:56.358Z,0
2017-11-30T04:15:36.871Z,0
2017-11-30T04:16:17.496Z,0
2017-11-30T04:16:57.943Z,0
2017-11-30T04:17:38.487Z,0
2017-11-30T04:18:19.009Z,0
2017-11-30T04:18:59.516Z,0
2017-11-30T04:19:40.048Z,0
2017-11-30T04:20:20.554Z,0
2017-11-30T04:21:01.050Z,0
2017-11-30T04:21:41.570Z,0
2017-11-30T04:22:22.101Z,0
2017-11-30T04:23:02.608Z,0
2017-11-30T04:23:43.119Z,0
2017-11-30T04:24:23.640Z,0
2017-11-30T04:25:04.155Z,0
2017-11-30T04:25:44.661Z,0
2017-11-30T04:26:25.193Z,0
2017-11-30T04:27:05.701Z,0
2017-11-30T04:27:46.215Z,0
2017-11-30T04:28:26.738Z,0
2017-11-30T04:29:07.231Z,0
2017-11-30T04:29:47.776Z,0
2017-11-30T04:30:28.328Z,0
2017-11-30T04:31:08.846Z,0
2017-11-30T04:31:49.359Z,0
2017-11-30T04:32:29.880Z,0
2017-11-30T04:33:10.383Z,0
2017-11-30T04:33:50.919Z,0
2017-11-30T04:34:31.425Z,0
2017-11-30T04:35:11.945Z,0
2017-11-30T04:35:52.433Z,0
2017-11-30T04:36:32.953Z,0
2017-11-30T04:37:13.467Z,0
2017-11-30T04:37:53.967Z,0
2017-11-30T04:38:34.450Z,0
2017-11-30T04:39:14.944Z,0
2017-11-30T04:39:55.465Z,0
2017-11-30T04:40:35.962Z,0
2017-11-30T04:41:16.437Z,0
2017-11-30T04:41:56.921Z,0
2017-11-30T04:42:37.440Z,0
2017-11-30T04:43:17.952Z,0
2017-11-30T04:43:58.444Z,0
2017-11-30T04:44:38.976Z,0
2017-11-30T04:45:19.427Z,0
2017-11-30T04:45:59.922Z,0
2017-11-30T04:46:40.425Z,0
2017-11-30T04:47:20.947Z,0
2017-11-30T04:48:01.393Z,0
2017-11-30T04:48:41.919Z,0
2017-11-30T04:49:22.425Z,0
2017-11-30T04:50:02.926Z,0
2017-11-30T04:50:43.453Z,0
2017-11-30T04:51:23.936Z,0
2017-11-30T04:52:04.430Z,0
2017-11-30T04:52:44.954Z,0
2017-11-30T04:53:25.430Z,0
2017-11-30T04:54:06.017Z,0
2017-11-30T04:54:46.546Z,0
2017-11-30T04:55:27.049Z,0
2017-11-30T04:56:07.567Z,0
2017-11-30T04:56:48.027Z,0
2017-11-30T04:57:28.513Z,0
2017-11-30T04:58:08.988Z,0
2017-11-30T04:58:49.498Z,0
2017-11-30T04:59:30.003Z,0
2017-11-30T05:00:10.506Z,0
2017-11-30T05:00:51.062Z,0
2017-11-30T05:01:31.571Z,0
2017-11-30T05:02:12.220Z,0
2017-11-30T05:02:52.765Z,0
2017-11-30T05:03:33.288Z,0
2017-11-30T05:04:13.753Z,0
2017-11-30T05:04:54.296Z,0
2017-11-30T05:05:34.815Z,0
2017-11-30T05:06:15.285Z,0
2017-11-30T05:06:55.798Z,0
2017-11-30T05:07:36.296Z,0
2017-11-30T05:08:16.924Z,0
2017-11-30T05:08:57.414Z,0
2017-11-30T05:09:38.013Z,0
2017-11-30T05:10:18.541Z,0
2017-11-30T05:10:59.065Z,0
2017-11-30T05:11:39.612Z,0
2017-11-30T05:12:20.076Z,0
2017-11-30T05:13:00.580Z,0
2017-11-30T05:13:41.106Z,0
2017-11-30T05:14:23.255Z,0
2017-11-30T05:15:06.760Z,0
2017-11-30T05:15:49.266Z,0
2017-11-30T05:16:29.759Z,0
2017-11-30T05:17:10.285Z,0
2017-11-30T05:17:50.801Z,0
2017-11-30T05:18:31.354Z,0
2017-11-30T05:19:11.862Z,0
2017-11-30T05:19:52.675Z,0
2017-11-30T05:20:33.371Z,0
2017-11-30T05:21:13.919Z,0
2017-11-30T05:21:55.480Z,0
2017-11-30T05:25:45.443Z,0
2017-11-30T05:26:25.902Z,0
2017-11-30T05:27:08.788Z,0
2017-11-30T05:27:50.771Z,0
2017-11-30T05:32:48.589Z,0
2017-11-30T05:33:29.072Z,0
2017-11-30T05:34:09.584Z,0
2017-11-30T05:34:50.120Z,0
2017-11-30T05:35:30.650Z,0
2017-11-30T05:36:11.174Z,0
2017-11-30T05:36:51.761Z,0
2017-11-30T05:37:32.265Z,0
2017-11-30T05:38:12.781Z,0
2017-11-30T05:38:53.302Z,0
2017-11-30T05:39:33.961Z,0
2017-11-30T05:40:14.607Z,0
2017-11-30T05:40:56.491Z,0
2017-11-30T05:41:38.146Z,0
2017-11-30T05:42:19.160Z,0
2017-11-30T05:43:00.687Z,0
2017-11-30T05:43:41.218Z,0
2017-11-30T05:44:21.822Z,0
2017-11-30T05:45:02.451Z,0
2017-11-30T05:45:42.899Z,0
2017-11-30T05:46:23.646Z,0
2017-11-30T05:47:07.284Z,0
2017-11-30T05:47:47.434Z,0
2017-11-30T05:48:27.887Z,0
2017-11-30T05:49:08.511Z,0
2017-11-30T05:49:49.060Z,0
2017-11-30T05:50:29.654Z,0
2017-11-30T05:51:10.234Z,0
2017-11-30T05:51:50.775Z,0
2017-11-30T05:52:31.277Z,0
2017-11-30T05:53:11.973Z,0
2017-11-30T05:53:52.347Z,0
2017-11-30T05:54:32.852Z,0
2017-11-30T05:55:13.374Z,0
2017-11-30T05:55:53.901Z,0
2017-11-30T05:56:34.894Z,0
2017-11-30T05:57:15.408Z,0
2017-11-30T05:57:56.062Z,0
2017-11-30T05:58:36.593Z,0
2017-11-30T05:59:17.143Z,0
2017-11-30T05:59:58.411Z,0
2017-11-30T06:00:38.936Z,0
2017-11-30T06:01:19.468Z,0
2017-11-30T06:02:00.044Z,0
2017-11-30T06:02:40.508Z,0
2017-11-30T06:03:21.012Z,0
2017-11-30T06:04:01.654Z,0
2017-11-30T06:04:42.126Z,0
2017-11-30T06:05:22.666Z,0
2017-11-30T06:06:07.426Z,0
2017-11-30T06:06:48.517Z,0
2017-11-30T06:07:29.039Z,0
2017-11-30T06:08:09.515Z,0
2017-11-30T06:08:50.164Z,0
2017-11-30T06:09:30.655Z,0
2017-11-30T06:10:11.162Z,0
2017-11-30T06:10:51.757Z,0
2017-11-30T06:11:32.169Z,0
2017-11-30T06:12:12.668Z,0
2017-11-30T06:12:53.248Z,0
2017-11-30T06:13:33.689Z,0
2017-11-30T06:14:14.229Z,0
2017-11-30T06:14:54.747Z,0
2017-11-30T06:15:35.228Z,0
2017-11-30T06:16:15.748Z,0
2017-11-30T06:16:56.577Z,0
2017-11-30T06:17:37.103Z,0
2017-11-30T06:18:17.582Z,0
2017-11-30T06:18:58.076Z,0
2017-11-30T06:19:38.543Z,0
2017-11-30T06:20:19.053Z,0
2017-11-30T06:20:59.522Z,0
2017-11-30T06:21:40.024Z,0
2017-11-30T06:22:20.527Z,0
2017-11-30T06:23:01.051Z,0
2017-11-30T06:23:41.524Z,0
2017-11-30T06:24:22.055Z,0
2017-11-30T06:25:02.573Z,0
2017-11-30T06:25:43.060Z,0
2017-11-30T06:26:23.612Z,0
2017-11-30T06:27:04.085Z,0
2017-11-30T06:27:44.573Z,0
2017-11-30T06:28:25.064Z,0
2017-11-30T06:29:05.617Z,0
2017-11-30T06:29:46.082Z,0
2017-11-30T06:30:26.592Z,0
2017-11-30T06:31:07.121Z,0
2017-11-30T06:31:47.606Z,0
2017-11-30T06:32:28.088Z,0
2017-11-30T06:33:08.564Z,0
2017-11-30T06:33:49.070Z,0
2017-11-30T06:34:29.566Z,0
2017-11-30T06:35:10.023Z,0
2017-11-30T06:35:50.510Z,0
2017-11-30T06:36:31.137Z,0
2017-11-30T06:37:11.614Z,0
2017-11-30T06:37:52.094Z,0
2017-11-30T06:38:32.680Z,0
2017-11-30T06:39:13.106Z,0
2017-11-30T06:39:53.662Z,0
2017-11-30T06:40:34.166Z,0
2017-11-30T06:41:14.626Z,0
2017-11-30T06:41:55.120Z,0
2017-11-30T06:42:35.629Z,0
2017-11-30T06:43:16.189Z,0
2017-11-30T06:43:56.676Z,0
2017-11-30T06:44:37.158Z,0
2017-11-30T06:45:17.684Z,0
2017-11-30T06:45:59.369Z,0
2017-11-30T06:46:39.825Z,0
2017-11-30T06:47:20.331Z,0
2017-11-30T06:48:00.802Z,0
2017-11-30T06:48:41.292Z,0
2017-11-30T06:49:21.843Z,0
2017-11-30T06:50:02.387Z,0
2017-11-30T06:50:42.943Z,0
2017-11-30T06:51:23.454Z,0
2017-11-30T06:52:03.911Z,0
2017-11-30T06:52:44.437Z,0
2017-11-30T06:53:24.945Z,0
2017-11-30T06:54:05.467Z,0
2017-11-30T06:56:22.299Z,0
2017-11-30T06:57:03.678Z,0
2017-11-30T07:07:00.160Z,0
2017-11-30T07:08:06.079Z,0
2017-11-30T07:08:56.291Z,0
2017-11-30T07:09:45.218Z,0
2017-11-30T07:10:35.033Z,0
2017-11-30T07:11:22.824Z,0
2017-11-30T07:12:08.646Z,0
2017-11-30T07:12:52.361Z,0
2017-11-30T07:13:37.750Z,0
2017-11-30T07:14:21.621Z,0
2017-11-30T07:15:04.104Z,0
2017-11-30T07:15:50.759Z,0
2017-11-30T07:16:41.595Z,0
2017-11-30T07:24:33.307Z,0
2017-11-30T07:25:13.830Z,0
2017-11-30T07:25:54.366Z,0
2017-11-30T07:26:34.931Z,0
2017-11-30T07:27:15.480Z,0
2017-11-30T07:27:56.005Z,0
2017-11-30T07:28:36.667Z,0
2017-11-30T07:29:17.129Z,0
2017-11-30T07:29:57.813Z,0
2017-11-30T07:30:38.270Z,0
2017-11-30T07:31:18.832Z,0
2017-11-30T07:31:59.410Z,0
2017-11-30T07:32:40.098Z,0
2017-11-30T07:33:20.553Z,0
2017-11-30T07:34:01.879Z,0
2017-11-30T07:34:42.368Z,0
2017-11-30T07:35:22.923Z,0
2017-11-30T07:36:03.536Z,0
2017-11-30T07:36:44.026Z,0
2017-11-30T07:37:24.562Z,0
2017-11-30T07:38:05.199Z,0
2017-11-30T07:38:45.827Z,5
2017-11-30T07:39:26.344Z,5
2017-11-30T07:40:06.939Z,5
2017-11-30T07:40:47.425Z,5
2017-11-30T07:41:27.985Z,5
2017-11-30T07:42:08.495Z,5
2017-11-30T07:42:49.005Z,5
2017-11-30T07:43:29.541Z,5
2017-11-30T07:44:10.037Z,5
2017-11-30T07:44:50.548Z,5
2017-11-30T07:45:31.056Z,5
2017-11-30T07:46:11.573Z,5
2017-11-30T07:46:52.152Z,5
2017-11-30T07:47:32.610Z,10
2017-11-30T07:48:13.119Z,10
2017-11-30T07:48:53.605Z,10
2017-11-30T07:49:34.098Z,10
2017-11-30T07:50:14.593Z,10
2017-11-30T07:50:55.089Z,10
2017-11-30T07:51:35.579Z,10
2017-11-30T07:52:16.099Z,10
2017-11-30T07:52:56.581Z,10
2017-11-30T07:53:37.149Z,10
2017-11-30T07:54:17.637Z,10
2017-11-30T07:54:58.129Z,10
2017-11-30T07:55:38.634Z,10
2017-11-30T07:56:19.143Z,10
2017-11-30T07:56:59.617Z,10
2017-11-30T07:57:40.093Z,10
2017-11-30T07:58:20.634Z,10
2017-11-30T07:59:01.085Z,10
2017-11-30T07:59:41.582Z,10
2017-11-30T08:00:22.024Z,10
2017-11-30T08:01:02.510Z,10
2017-11-30T08:01:42.996Z,15
2017-11-30T08:02:23.501Z,15
2017-11-30T08:03:03.985Z,15
2017-11-30T08:03:44.479Z,20
2017-11-30T08:04:24.983Z,20
2017-11-30T08:05:05.479Z,20
2017-11-30T08:05:46.005Z,15
2017-11-30T08:06:26.479Z,15
2017-11-30T08:07:06.988Z,15
2017-11-30T08:07:47.502Z,15
2017-11-30T08:08:28.149Z,15
2017-11-30T08:09:08.711Z,15
2017-11-30T08:09:49.181Z,15
2017-11-30T08:10:29.648Z,15
2017-11-30T08:11:10.149Z,15
2017-11-30T08:11:50.644Z,10
2017-11-30T08:12:31.128Z,10
2017-11-30T08:13:11.615Z,15
2017-11-30T08:13:52.130Z,15
2017-11-30T08:14:32.597Z,15
2017-11-30T08:15:13.143Z,15
2017-11-30T08:15:53.642Z,15
2017-11-30T08:16:34.122Z,20
2017-11-30T08:17:14.627Z,20
2017-11-30T08:17:55.149Z,20
2017-11-30T08:18:35.663Z,20
2017-11-30T08:19:16.149Z,20
2017-11-30T08:19:56.672Z,20
2017-11-30T08:20:37.149Z,15
2017-11-30T08:21:17.646Z,15
2017-11-30T08:21:58.148Z,15
2017-11-30T08:22:38.839Z,15
2017-11-30T08:23:20.797Z,15
2017-11-30T08:24:01.313Z,15
2017-11-30T08:24:41.848Z,10
2017-11-30T08:25:22.364Z,10
2017-11-30T08:26:04.496Z,10
2017-11-30T08:26:44.992Z,10
2017-11-30T08:27:25.542Z,10
2017-11-30T08:28:06.004Z,15
2017-11-30T08:28:46.494Z,15
2017-11-30T08:29:26.981Z,15
2017-11-30T08:30:07.496Z,15
2017-11-30T08:30:47.982Z,15
2017-11-30T08:31:28.492Z,15
2017-11-30T08:32:08.961Z,15
2017-11-30T08:32:49.624Z,15
2017-11-30T08:33:30.137Z,15
2017-11-30T08:34:10.654Z,15
2017-11-30T08:34:51.153Z,15
2017-11-30T08:35:31.702Z,10
2017-11-30T08:36:12.160Z,15
2017-11-30T08:36:52.642Z,15
2017-11-30T08:37:33.163Z,10
2017-11-30T08:38:13.644Z,10
2017-11-30T08:38:54.109Z,10
2017-11-30T08:39:34.623Z,10
2017-11-30T08:40:15.162Z,10
2017-11-30T08:40:55.707Z,10
2017-11-30T08:41:36.230Z,15
2017-11-30T08:42:16.716Z,10
2017-11-30T08:42:57.211Z,10
2017-11-30T08:43:37.731Z,10
2017-11-30T08:44:18.238Z,15
2017-11-30T08:44:58.701Z,15
2017-11-30T08:45:39.181Z,15
2017-11-30T08:46:19.688Z,15
2017-11-30T08:47:00.204Z,20
2017-11-30T08:47:40.657Z,15
2017-11-30T08:48:21.218Z,20
2017-11-30T08:49:01.655Z,20
2017-11-30T08:49:42.157Z,20
2017-11-30T08:50:22.657Z,25
2017-11-30T08:51:03.114Z,25
2017-11-30T08:51:43.609Z,25
2017-11-30T08:52:24.138Z,25
2017-11-30T08:53:04.606Z,25
2017-11-30T08:53:45.070Z,20
2017-11-30T08:54:25.556Z,25
2017-11-30T08:55:06.094Z,20
2017-11-30T08:55:46.601Z,20
2017-11-30T08:56:27.125Z,20
2017-11-30T08:57:07.569Z,15
2017-11-30T08:57:48.051Z,15
2017-11-30T08:58:28.543Z,20
2017-11-30T08:59:09.039Z,20
2017-11-30T08:59:49.501Z,20
2017-11-30T09:00:29.976Z,20
2017-11-30T09:01:10.489Z,20
2017-11-30T09:01:51.016Z,20
2017-11-30T09:02:31.496Z,20
2017-11-30T09:03:12.038Z,20
2017-11-30T09:03:52.483Z,25
2017-11-30T09:04:32.930Z,25
2017-11-30T09:05:13.437Z,30
2017-11-30T09:05:53.950Z,25
2017-11-30T09:06:34.484Z,20
2017-11-30T09:07:14.925Z,20
2017-11-30T09:07:55.395Z,20
2017-11-30T09:08:35.934Z,20
2017-11-30T09:09:16.375Z,25
2017-11-30T09:09:56.845Z,25
2017-11-30T09:10:39.078Z,30
2017-11-30T09:11:19.589Z,30
2017-11-30T09:12:00.089Z,30
2017-11-30T09:12:40.606Z,30
2017-11-30T09:13:21.081Z,25
2017-11-30T09:14:01.551Z,25
2017-11-30T09:14:42.176Z,30
2017-11-30T09:15:22.602Z,25
2017-11-30T09:16:03.152Z,25
2017-11-30T09:16:43.637Z,25
2017-11-30T09:17:24.118Z,30
2017-11-30T09:18:04.604Z,30
2017-11-30T09:18:45.108Z,30
2017-11-30T09:19:25.583Z,30
2017-11-30T09:20:06.060Z,30
2017-11-30T09:20:46.561Z,30
2017-11-30T09:21:27.037Z,30
2017-11-30T09:22:07.567Z,30
2017-11-30T09:22:48.047Z,25
2017-11-30T09:23:28.567Z,25
2017-11-30T09:24:09.046Z,25
2017-11-30T09:24:49.544Z,30
2017-11-30T09:25:30.049Z,25
2017-11-30T09:26:10.527Z,20
2017-11-30T09:26:51.027Z,20
2017-11-30T09:27:31.515Z,20
2017-11-30T09:28:12.024Z,25
2017-11-30T09:28:52.521Z,25
2017-11-30T09:29:33.015Z,25
2017-11-30T09:30:13.518Z,25
2017-11-30T09:30:54.023Z,25
2017-11-30T09:31:34.560Z,25
2017-11-30T09:32:15.039Z,25
2017-11-30T09:32:55.551Z,25
2017-11-30T09:33:36.102Z,25
2017-11-30T09:34:16.562Z,30
2017-11-30T09:34:57.126Z,25
2017-11-30T09:35:37.584Z,25
2017-11-30T09:36:18.071Z,25
2017-11-30T09:36:58.592Z,20
2017-11-30T09:37:39.071Z,20
2017-11-30T09:38:19.554Z,20
2017-11-30T09:39:00.046Z,20
2017-11-30T09:39:40.555Z,20
2017-11-30T09:40:21.071Z,20
2017-11-30T09:41:01.584Z,20
2017-11-30T09:41:42.114Z,25
2017-11-30T09:42:22.628Z,25
2017-11-30T09:43:03.138Z,25
2017-11-30T09:43:43.676Z,25
2017-11-30T09:44:25.806Z,25
2017-11-30T09:45:06.353Z,30
2017-11-30T09:45:46.847Z,30
2017-11-30T09:46:27.330Z,35
2017-11-30T09:47:07.837Z,35
2017-11-30T09:47:48.350Z,35
2017-11-30T09:48:28.858Z,30
2017-11-30T09:49:09.396Z,30
2017-11-30T09:49:49.870Z,30
2017-11-30T09:50:30.408Z,30
2017-11-30T09:51:10.896Z,30
2017-11-30T09:51:51.432Z,35
2017-11-30T09:52:31.989Z,35
2017-11-30T09:53:12.478Z,35
2017-11-30T09:53:53.017Z,40
2017-11-30T09:54:33.514Z,40
2017-11-30T09:55:13.996Z,45
2017-11-30T09:55:54.534Z,55
2017-11-30T09:56:35.058Z,65
2017-11-30T09:57:15.580Z,70
2017-11-30T09:57:56.104Z,65
2017-11-30T09:58:36.623Z,60
2017-11-30T09:59:17.187Z,60
2017-11-30T09:59:57.695Z,55
2017-11-30T10:00:38.205Z,55
2017-11-30T10:01:18.807Z,65
2017-11-30T10:01:59.259Z,70
2017-11-30T10:02:39.776Z,75
2017-11-30T10:03:20.321Z,75
2017-11-30T10:04:00.862Z,60
2017-11-30T10:04:41.467Z,55
2017-11-30T10:05:21.924Z,55
2017-11-30T10:06:02.484Z,55
2017-11-30T10:06:42.945Z,50
2017-11-30T10:07:23.554Z,50
2017-11-30T10:08:04.029Z,50
2017-11-30T10:08:44.535Z,55
2017-11-30T10:09:25.050Z,50
2017-11-30T10:10:05.583Z,55
2017-11-30T10:10:46.164Z,50
2017-11-30T10:11:26.626Z,45
2017-11-30T10:12:07.197Z,45
2017-11-30T10:12:47.750Z,50
2017-11-30T10:13:28.236Z,55
2017-11-30T10:14:08.748Z,55
2017-11-30T10:14:49.237Z,55
2017-11-30T10:15:29.767Z,60
2017-11-30T10:16:10.305Z,70
2017-11-30T10:16:50.863Z,75
2017-11-30T10:17:31.398Z,90
2017-11-30T10:18:12.070Z,95
2017-11-30T10:18:52.564Z,100
2017-11-30T10:19:33.085Z,95
2017-11-30T10:20:13.615Z,80
2017-11-30T10:20:54.201Z,70
2017-11-30T10:21:34.673Z,70
2017-11-30T10:22:15.215Z,70